Conover, North Carolina
Current Conditions -  °F | °C
As of 11:53 AM on Tuesday 27 Jan 2015 (Local Time) from KHKY Reporting Station
Overcast Overcast  
Wind Chill:   Ceiling: 7000
Heat Index:   Visibility: 10mi
Dew Point: -8°   Wind: 12mph
Humidity: 41%   Direction: 300°WNW
Pressure: 29.86"   Gusts: NA
Location:  35.71°N, 81.22°W
Report Text: KHKY 271653Z 30010KT 10SM OVC070 04/M08 A2986 RMK AO2 SLP106 T00391083
Loading
Personal Weather Stations






























Interactive Weather Map New forecast layout! Learn more

10-Day Weather Forecast

Advertisements
Track Severe Weather on mobile